YM Initiative — A8HX4 — position and weather

sailwx.info

Track history (hours):
 
Tides and Currents Weather Stations Pressure Air Temp Water Temp Dewpoint Dewpoint Depression Visibility Wind Speed Wind Dir Waves Ship Positions

YM Initiative

Last reported at 2015-Jul-04 01:33 UTC. Time now 2015-Jul-07 13:11 UTC.
Position N 01°16' E 104°10'.

Length 173 m; draft 7.7 m.

Type: Cargo ship. MMSI: 635961368.

Date/timePositionNaut miles runAvg speedWind from/ knotsBaromVisibWave heightAir tempDewpointWater temp
2015-Jul-04 01:33N 01°16' E 104°10'1515.0
2015-Jul-04 00:33N 01°13' E 103°56'10 9.5
2015-Jul-03 23:33N 01°16' E 103°47'1 0.6
2015-Jul-03 22:31N 01°17' E 103°47'0 0.0
2015-Jul-03 21:25N 01°17' E 103°47'0 0.0
2015-Jul-03 20:25N 01°17' E 103°47'0 0.0
2015-Jul-03 19:31N 01°17' E 103°47'0 0.0
2015-Jul-03 18:31N 01°17' E 103°47'0 0.0
2015-Jul-03 17:31N 01°17' E 103°47'0 0.0
2015-Jul-03 16:31N 01°17' E 103°47'0 0.0
2015-Jul-03 15:31N 01°17' E 103°47'0 0.0
2015-Jul-03 14:25N 01°17' E 103°47'0 0.0
2015-Jul-03 13:31N 01°17' E 103°47'0 0.0
2015-Jul-03 12:31N 01°17' E 103°47'0 0.0
2015-Jul-03 11:28N 01°17' E 103°47'5 5.3
2015-Jul-03 10:33N 01°13' E 103°49'1211.8
2015-Jul-03 09:33N 01°16' E 104°01'6 6.4
2015-Jul-03 08:33N 01°17' E 104°07'  
2015-Jun-29 10:31N 01°15' E 104°03'1515.5
2015-Jun-29 09:33N 01°10' E 103°49'7514.2
2015-Jun-29 04:16N 01°41' E 102°40'1216.1
2015-Jun-29 03:31N 01°46' E 102°30'2016.4
2015-Jun-29 02:18N 01°56' E 102°12'7 0.2
2015-Jun-27 11:29N 01°56' E 102°20'8 9.0
2015-Jun-27 10:33N 01°52' E 102°27'9 8.8
2015-Jun-27 09:34N 01°49' E 102°35'9 8.8
2015-Jun-27 08:31N 01°45' E 102°44'9 8.8
2015-Jun-27 07:30N 01°41' E 102°52'52 9.7
2015-Jun-27 02:10N 01°12' E 103°35'5 8.5
2015-Jun-27 01:31N 01°13' E 103°40'7 7.3
2015-Jun-27 00:32N 01°17' E 103°47'0 0.0
2015-Jun-26 23:32N 01°17' E 103°47'0 0.0
2015-Jun-26 22:32N 01°17' E 103°47'0 0.0
2015-Jun-26 21:29N 01°17' E 103°47'0 0.0
2015-Jun-26 20:32N 01°17' E 103°47'0 0.0
2015-Jun-26 19:32N 01°17' E 103°47'0 0.0
2015-Jun-26 18:32N 01°17' E 103°47'0 0.0
2015-Jun-26 17:26N 01°17' E 103°47'0 0.0
2015-Jun-26 16:23N 01°17' E 103°47'0 0.0
2015-Jun-26 15:32N 01°17' E 103°47'0 0.0
2015-Jun-26 14:32N 01°17' E 103°47'0 0.0
2015-Jun-26 13:32N 01°17' E 103°47'0 0.0
2015-Jun-26 12:32N 01°17' E 103°47'0 0.0
2015-Jun-26 11:32N 01°17' E 103°47'2 1.7
2015-Jun-26 10:34N 01°15' E 103°46'9 4.5
2015-Jun-26 08:33N 01°14' E 103°55'7 6.8
2015-Jun-26 07:34N 01°16' E 104°02'10 9.6
2015-Jun-26 06:33N 01°17' E 104°12'  
Track history (hours):
 
Tides and Currents Weather Stations Pressure Air Temp Water Temp Dewpoint Dewpoint Depression Visibility Wind Speed Wind Dir Waves Ship Positions

YM Initiative

Last reported at 2015-Jul-04 01:33 UTC. Time now 2015-Jul-07 13:11 UTC.
Position N 01°16' E 104°10'.

Length 173 m; draft 7.7 m.

Type: Cargo ship. MMSI: 635961368.

Date/timePositionNaut miles runAvg speedWind from/ knotsBaromVisibWave heightAir tempDewpointWater temp
2015-Jul-04 01:33N 01°16' E 104°10'1515.0
2015-Jul-04 00:33N 01°13' E 103°56'10 9.5
2015-Jul-03 23:33N 01°16' E 103°47'1 0.6
2015-Jul-03 22:31N 01°17' E 103°47'0 0.0
2015-Jul-03 21:25N 01°17' E 103°47'0 0.0
2015-Jul-03 20:25N 01°17' E 103°47'0 0.0
2015-Jul-03 19:31N 01°17' E 103°47'0 0.0
2015-Jul-03 18:31N 01°17' E 103°47'0 0.0
2015-Jul-03 17:31N 01°17' E 103°47'0 0.0
2015-Jul-03 16:31N 01°17' E 103°47'0 0.0
2015-Jul-03 15:31N 01°17' E 103°47'0 0.0
2015-Jul-03 14:25N 01°17' E 103°47'0 0.0
2015-Jul-03 13:31N 01°17' E 103°47'0 0.0
2015-Jul-03 12:31N 01°17' E 103°47'0 0.0
2015-Jul-03 11:28N 01°17' E 103°47'5 5.3
2015-Jul-03 10:33N 01°13' E 103°49'1211.8
2015-Jul-03 09:33N 01°16' E 104°01'6 6.4
2015-Jul-03 08:33N 01°17' E 104°07'  
2015-Jun-29 10:31N 01°15' E 104°03'1515.5
2015-Jun-29 09:33N 01°10' E 103°49'7514.2
2015-Jun-29 04:16N 01°41' E 102°40'1216.1
2015-Jun-29 03:31N 01°46' E 102°30'2016.4
2015-Jun-29 02:18N 01°56' E 102°12'7 0.2
2015-Jun-27 11:29N 01°56' E 102°20'8 9.0
2015-Jun-27 10:33N 01°52' E 102°27'9 8.8
2015-Jun-27 09:34N 01°49' E 102°35'9 8.8
2015-Jun-27 08:31N 01°45' E 102°44'9 8.8
2015-Jun-27 07:30N 01°41' E 102°52'52 9.7
2015-Jun-27 02:10N 01°12' E 103°35'5 8.5
2015-Jun-27 01:31N 01°13' E 103°40'7 7.3
2015-Jun-27 00:32N 01°17' E 103°47'0 0.0
2015-Jun-26 23:32N 01°17' E 103°47'0 0.0
2015-Jun-26 22:32N 01°17' E 103°47'0 0.0
2015-Jun-26 21:29N 01°17' E 103°47'0 0.0
2015-Jun-26 20:32N 01°17' E 103°47'0 0.0
2015-Jun-26 19:32N 01°17' E 103°47'0 0.0
2015-Jun-26 18:32N 01°17' E 103°47'0 0.0
2015-Jun-26 17:26N 01°17' E 103°47'0 0.0
2015-Jun-26 16:23N 01°17' E 103°47'0 0.0
2015-Jun-26 15:32N 01°17' E 103°47'0 0.0
2015-Jun-26 14:32N 01°17' E 103°47'0 0.0
2015-Jun-26 13:32N 01°17' E 103°47'0 0.0
2015-Jun-26 12:32N 01°17' E 103°47'0 0.0
2015-Jun-26 11:32N 01°17' E 103°47'2 1.7
2015-Jun-26 10:34N 01°15' E 103°46'9 4.5
2015-Jun-26 08:33N 01°14' E 103°55'7 6.8
2015-Jun-26 07:34N 01°16' E 104°02'10 9.6
2015-Jun-26 06:33N 01°17' E 104°12'  

Dump ship's entire track history